sensor_id;sensor_type;location;lat;lon;timestamp;pressure;altitude;pressure_sealevel;temperature;humidity
5522;BME280;2783;48.730;8.006;2023-05-27T00:01:36;100715.34;;;17.62;66.75
5522;BME280;2783;48.730;8.006;2023-05-27T00:04:01;100716.13;;;17.64;66.29
5522;BME280;2783;48.730;8.006;2023-05-27T00:06:26;100715.34;;;17.62;66.35
5522;BME280;2783;48.730;8.006;2023-05-27T00:08:52;100715.41;;;17.61;65.73
5522;BME280;2783;48.730;8.006;2023-05-27T00:11:17;100716.56;;;17.55;65.33
5522;BME280;2783;48.730;8.006;2023-05-27T00:13:42;100713.66;;;17.60;65.75
5522;BME280;2783;48.730;8.006;2023-05-27T00:16:08;100711.03;;;17.58;65.44
5522;BME280;2783;48.730;8.006;2023-05-27T00:18:33;100712.34;;;17.50;64.85
5522;BME280;2783;48.730;8.006;2023-05-27T00:20:59;100709.59;;;17.51;64.85
5522;BME280;2783;48.730;8.006;2023-05-27T00:23:24;100703.03;;;17.57;65.35
5522;BME280;2783;48.730;8.006;2023-05-27T00:25:49;100709.66;;;17.50;64.68
5522;BME280;2783;48.730;8.006;2023-05-27T00:28:15;100704.38;;;17.48;64.39
5522;BME280;2783;48.730;8.006;2023-05-27T00:30:40;100702.72;;;17.46;64.98
5522;BME280;2783;48.730;8.006;2023-05-27T00:33:06;100700.84;;;17.48;65.03
5522;BME280;2783;48.730;8.006;2023-05-27T00:35:31;100708.16;;;17.44;64.27
5522;BME280;2783;48.730;8.006;2023-05-27T00:37:56;100709.00;;;17.45;63.64
5522;BME280;2783;48.730;8.006;2023-05-27T00:40:22;100704.66;;;17.42;64.13
5522;BME280;2783;48.730;8.006;2023-05-27T00:42:48;100701.16;;;17.40;63.77
5522;BME280;2783;48.730;8.006;2023-05-27T00:45:13;100701.63;;;17.31;63.27
5522;BME280;2783;48.730;8.006;2023-05-27T00:47:38;100700.44;;;17.37;63.02
5522;BME280;2783;48.730;8.006;2023-05-27T00:50:04;100697.66;;;17.38;62.77
5522;BME280;2783;48.730;8.006;2023-05-27T00:52:30;100690.72;;;17.34;63.30
5522;BME280;2783;48.730;8.006;2023-05-27T00:54:56;100692.84;;;17.28;63.81
5522;BME280;2783;48.730;8.006;2023-05-27T00:57:22;100689.28;;;17.27;62.62
5522;BME280;2783;48.730;8.006;2023-05-27T00:59:47;100701.63;;;17.31;62.93
5522;BME280;2783;48.730;8.006;2023-05-27T01:02:12;100694.81;;;17.24;64.00
5522;BME280;2783;48.730;8.006;2023-05-27T01:04:38;100690.59;;;17.19;63.25
5522;BME280;2783;48.730;8.006;2023-05-27T01:07:06;100701.06;;;17.25;63.45
5522;BME280;2783;48.730;8.006;2023-05-27T01:12:15;100687.25;;;17.13;63.06
5522;BME280;2783;48.730;8.006;2023-05-27T01:14:43;100685.75;;;17.08;63.71
5522;BME280;2783;48.730;8.006;2023-05-27T01:17:09;100690.41;;;17.04;63.14
5522;BME280;2783;48.730;8.006;2023-05-27T01:19:35;100689.59;;;17.02;63.54
5522;BME280;2783;48.730;8.006;2023-05-27T01:22:01;100690.63;;;17.00;63.99
5522;BME280;2783;48.730;8.006;2023-05-27T01:24:27;100682.75;;;16.95;63.95
5522;BME280;2783;48.730;8.006;2023-05-27T01:26:52;100680.97;;;16.96;63.87
5522;BME280;2783;48.730;8.006;2023-05-27T01:29:19;100686.41;;;16.94;63.69
5522;BME280;2783;48.730;8.006;2023-05-27T01:31:50;100677.47;;;16.94;64.51
5522;BME280;2783;48.730;8.006;2023-05-27T01:34:18;100681.94;;;16.93;64.28
5522;BME280;2783;48.730;8.006;2023-05-27T01:36:47;100670.78;;;16.84;63.58
5522;BME280;2783;48.730;8.006;2023-05-27T01:39:13;100675.34;;;16.82;63.30
5522;BME280;2783;48.730;8.006;2023-05-27T01:41:40;100670.13;;;16.79;64.15
5522;BME280;2783;48.730;8.006;2023-05-27T01:44:06;100665.88;;;16.75;64.20
5522;BME280;2783;48.730;8.006;2023-05-27T01:46:32;100661.41;;;16.74;64.42
5522;BME280;2783;48.730;8.006;2023-05-27T01:48:58;100670.44;;;16.73;64.29
5522;BME280;2783;48.730;8.006;2023-05-27T01:51:23;100662.66;;;16.67;64.99
5522;BME280;2783;48.730;8.006;2023-05-27T01:53:48;100659.19;;;16.65;64.25
5522;BME280;2783;48.730;8.006;2023-05-27T01:56:13;100654.22;;;16.56;64.54
5522;BME280;2783;48.730;8.006;2023-05-27T01:58:39;100654.22;;;16.56;64.27
5522;BME280;2783;48.730;8.006;2023-05-27T02:01:04;100615.22;;;16.29;64.35
5522;BME280;2783;48.730;8.006;2023-05-27T02:03:30;100650.09;;;16.49;64.33
5522;BME280;2783;48.730;8.006;2023-05-27T02:05:55;100645.31;;;16.55;65.18
5522;BME280;2783;48.730;8.006;2023-05-27T02:08:21;100642.81;;;16.51;64.31
5522;BME280;2783;48.730;8.006;2023-05-27T02:10:47;100641.03;;;16.51;64.81
5522;BME280;2783;48.730;8.006;2023-05-27T02:13:12;100644.84;;;16.46;64.57
5522;BME280;2783;48.730;8.006;2023-05-27T02:15:38;100640.63;;;16.40;64.71
5522;BME280;2783;48.730;8.006;2023-05-27T02:18:03;100643.22;;;16.42;63.98
5522;BME280;2783;48.730;8.006;2023-05-27T02:20:30;100641.34;;;16.44;63.56
5522;BME280;2783;48.730;8.006;2023-05-27T02:22:55;100641.25;;;16.47;63.88
5522;BME280;2783;48.730;8.006;2023-05-27T02:25:20;100639.47;;;16.46;64.26
5522;BME280;2783;48.730;8.006;2023-05-27T02:27:45;100639.75;;;16.40;64.75
5522;BME280;2783;48.730;8.006;2023-05-27T02:30:14;100642.78;;;16.32;64.38
5522;BME280;2783;48.730;8.006;2023-05-27T02:32:40;100639.31;;;16.30;64.19
5522;BME280;2783;48.730;8.006;2023-05-27T02:35:05;100640.28;;;16.28;64.65
5522;BME280;2783;48.730;8.006;2023-05-27T02:37:31;100637.53;;;16.29;64.46
5522;BME280;2783;48.730;8.006;2023-05-27T02:39:56;100637.63;;;16.28;64.81
5522;BME280;2783;48.730;8.006;2023-05-27T02:42:21;100635.06;;;16.25;64.17
5522;BME280;2783;48.730;8.006;2023-05-27T02:44:46;100627.16;;;16.22;65.11
5522;BME280;2783;48.730;8.006;2023-05-27T02:47:12;100626.50;;;16.17;64.73
5522;BME280;2783;48.730;8.006;2023-05-27T02:49:37;100633.66;;;16.16;64.37
5522;BME280;2783;48.730;8.006;2023-05-27T02:52:02;100623.81;;;16.17;64.92
5522;BME280;2783;48.730;8.006;2023-05-27T02:54:28;100628.53;;;16.12;65.13
5522;BME280;2783;48.730;8.006;2023-05-27T02:56:53;100627.59;;;16.13;64.90
5522;BME280;2783;48.730;8.006;2023-05-27T02:59:18;100627.72;;;16.10;63.94
5522;BME280;2783;48.730;8.006;2023-05-27T03:01:43;100620.53;;;16.10;64.57
5522;BME280;2783;48.730;8.006;2023-05-27T03:04:09;100619.66;;;16.10;64.67
5522;BME280;2783;48.730;8.006;2023-05-27T03:06:34;100617.19;;;16.05;65.19
5522;BME280;2783;48.730;8.006;2023-05-27T03:09:01;100622.03;;;15.97;65.24
5522;BME280;2783;48.730;8.006;2023-05-27T03:11:26;100621.97;;;15.99;65.16
5522;BME280;2783;48.730;8.006;2023-05-27T03:13:51;100636.41;;;15.96;64.46
5522;BME280;2783;48.730;8.006;2023-05-27T03:16:16;100638.22;;;15.96;65.15
5522;BME280;2783;48.730;8.006;2023-05-27T03:18:44;100634.44;;;16.00;65.57
5522;BME280;2783;48.730;8.006;2023-05-27T03:21:10;100638.34;;;15.93;65.34
5522;BME280;2783;48.730;8.006;2023-05-27T03:23:35;100636.72;;;15.89;65.03
5522;BME280;2783;48.730;8.006;2023-05-27T03:26:00;100640.38;;;15.88;65.24
5522;BME280;2783;48.730;8.006;2023-05-27T03:28:25;100643.28;;;15.81;65.66
5522;BME280;2783;48.730;8.006;2023-05-27T03:30:51;100645.31;;;15.76;65.82
5522;BME280;2783;48.730;8.006;2023-05-27T03:33:21;100645.13;;;15.81;65.65
5522;BME280;2783;48.730;8.006;2023-05-27T03:35:46;100643.44;;;15.78;65.96
5522;BME280;2783;48.730;8.006;2023-05-27T03:38:11;100641.09;;;15.71;66.09
5522;BME280;2783;48.730;8.006;2023-05-27T03:40:36;100643.78;;;15.71;66.18
5522;BME280;2783;48.730;8.006;2023-05-27T03:43:02;100642.22;;;15.65;65.19
5522;BME280;2783;48.730;8.006;2023-05-27T03:45:27;100643.19;;;15.64;66.16
5522;BME280;2783;48.730;8.006;2023-05-27T03:47:52;100651.28;;;15.63;65.31
5522;BME280;2783;48.730;8.006;2023-05-27T03:50:17;100647.06;;;15.57;66.19
5522;BME280;2783;48.730;8.006;2023-05-27T03:52:43;100648.75;;;15.60;67.17
5522;BME280;2783;48.730;8.006;2023-05-27T03:55:08;100656.06;;;15.56;67.14
5522;BME280;2783;48.730;8.006;2023-05-27T03:57:33;100657.78;;;15.57;66.21
5522;BME280;2783;48.730;8.006;2023-05-27T03:59:59;100642.50;;;15.59;66.73
5522;BME280;2783;48.730;8.006;2023-05-27T04:02:24;100648.78;;;15.58;66.15
5522;BME280;2783;48.730;8.006;2023-05-27T04:04:49;100650.56;;;15.59;65.75
5522;BME280;2783;48.730;8.006;2023-05-27T04:07:15;100644.38;;;15.57;65.68
5522;BME280;2783;48.730;8.006;2023-05-27T04:09:43;100647.06;;;15.57;65.79
5522;BME280;2783;48.730;8.006;2023-05-27T04:12:08;100643.25;;;15.63;65.80
5522;BME280;2783;48.730;8.006;2023-05-27T04:14:33;100645.19;;;15.59;66.43
5522;BME280;2783;48.730;8.006;2023-05-27T04:16:58;100648.69;;;15.61;67.00
5522;BME280;2783;48.730;8.006;2023-05-27T04:19:24;100652.28;;;15.60;65.86
5522;BME280;2783;48.730;8.006;2023-05-27T04:21:49;100639.91;;;15.58;66.16
5522;BME280;2783;48.730;8.006;2023-05-27T04:24:14;100644.25;;;15.60;66.17
5522;BME280;2783;48.730;8.006;2023-05-27T04:26:39;100644.78;;;15.68;66.85
5522;BME280;2783;48.730;8.006;2023-05-27T04:29:06;100649.16;;;15.71;66.91
5522;BME280;2783;48.730;8.006;2023-05-27T04:31:34;100642.63;;;15.76;66.38
5522;BME280;2783;48.730;8.006;2023-05-27T04:34:01;100651.34;;;15.81;66.51
5522;BME280;2783;48.730;8.006;2023-05-27T04:36:27;100651.34;;;15.81;66.87
5522;BME280;2783;48.730;8.006;2023-05-27T04:38:58;100644.25;;;15.80;66.32
5522;BME280;2783;48.730;8.006;2023-05-27T04:41:26;100652.97;;;15.86;65.67
5522;BME280;2783;48.730;8.006;2023-05-27T04:43:52;100643.72;;;15.93;65.76
5522;BME280;2783;48.730;8.006;2023-05-27T04:46:17;100643.56;;;15.96;65.29
5522;BME280;2783;48.730;8.006;2023-05-27T04:48:42;100646.34;;;15.94;65.84
5522;BME280;2783;48.730;8.006;2023-05-27T04:51:09;100645.97;;;16.02;65.07
5522;BME280;2783;48.730;8.006;2023-05-27T04:53:35;100651.09;;;16.08;64.95
5522;BME280;2783;48.730;8.006;2023-05-27T04:56:00;100645.16;;;16.00;65.23
5522;BME280;2783;48.730;8.006;2023-05-27T04:58:25;100643.72;;;16.13;65.07
5522;BME280;2783;48.730;8.006;2023-05-27T05:00:51;100642.75;;;16.14;65.01
5522;BME280;2783;48.730;8.006;2023-05-27T05:03:20;100640.06;;;16.14;63.89
5522;BME280;2783;48.730;8.006;2023-05-27T05:05:49;100639.69;;;16.21;63.85
5522;BME280;2783;48.730;8.006;2023-05-27T05:08:16;100642.31;;;16.23;63.76
5522;BME280;2783;48.730;8.006;2023-05-27T05:10:41;100645.47;;;16.32;63.97
5522;BME280;2783;48.730;8.006;2023-05-27T05:13:07;100647.72;;;16.41;62.95
5522;BME280;2783;48.730;8.006;2023-05-27T05:15:32;100650.63;;;16.57;62.98
5522;BME280;2783;48.730;8.006;2023-05-27T05:17:57;100655.91;;;16.77;63.99
5522;BME280;2783;48.730;8.006;2023-05-27T05:20:23;100653.16;;;16.78;62.73
5522;BME280;2783;48.730;8.006;2023-05-27T05:22:48;100647.84;;;16.77;62.29
5522;BME280;2783;48.730;8.006;2023-05-27T05:25:13;100656.34;;;16.86;62.47
5522;BME280;2783;48.730;8.006;2023-05-27T05:27:39;100650.97;;;16.86;61.56
5522;BME280;2783;48.730;8.006;2023-05-27T05:30:05;100660.41;;;16.95;61.90
5522;BME280;2783;48.730;8.006;2023-05-27T05:32:30;100652.28;;;16.96;62.27
5522;BME280;2783;48.730;8.006;2023-05-27T05:34:56;100650.66;;;17.11;62.04
5522;BME280;2783;48.730;8.006;2023-05-27T05:37:21;100651.72;;;17.07;61.22
5522;BME280;2783;48.730;8.006;2023-05-27T05:39:46;100651.25;;;16.99;61.05
5522;BME280;2783;48.730;8.006;2023-05-27T05:42:11;100659.63;;;17.10;61.12
5522;BME280;2783;48.730;8.006;2023-05-27T05:44:37;100666.78;;;17.11;60.50
5522;BME280;2783;48.730;8.006;2023-05-27T05:47:02;100655.28;;;17.26;59.56
5522;BME280;2783;48.730;8.006;2023-05-27T05:49:27;100649.75;;;17.29;60.29
5522;BME280;2783;48.730;8.006;2023-05-27T05:51:53;100653.78;;;17.38;59.77
5522;BME280;2783;48.730;8.006;2023-05-27T05:54:19;100660.88;;;17.57;59.84
5522;BME280;2783;48.730;8.006;2023-05-27T05:56:44;100649.72;;;17.65;59.09
5522;BME280;2783;48.730;8.006;2023-05-27T05:59:09;100648.47;;;17.72;57.78
5522;BME280;2783;48.730;8.006;2023-05-27T06:01:34;100649.00;;;17.78;58.16
5522;BME280;2783;48.730;8.006;2023-05-27T06:04:00;100647.66;;;17.87;59.03
5522;BME280;2783;48.730;8.006;2023-05-27T06:06:29;100655.56;;;18.07;59.26
5522;BME280;2783;48.730;8.006;2023-05-27T06:08:54;100654.53;;;18.09;59.09
5522;BME280;2783;48.730;8.006;2023-05-27T06:11:20;100657.66;;;18.17;57.47
5522;BME280;2783;48.730;8.006;2023-05-27T06:13:45;100648.41;;;18.23;56.36
5522;BME280;2783;48.730;8.006;2023-05-27T06:16:10;100623.09;;;18.10;57.43
5522;BME280;2783;48.730;8.006;2023-05-27T06:18:35;100665.41;;;18.41;56.98
5522;BME280;2783;48.730;8.006;2023-05-27T06:21:01;100666.13;;;18.44;57.56
5522;BME280;2783;48.730;8.006;2023-05-27T06:23:26;100666.31;;;18.57;56.61
5522;BME280;2783;48.730;8.006;2023-05-27T06:25:51;100665.03;;;18.64;56.11
5522;BME280;2783;48.730;8.006;2023-05-27T06:28:16;100669.66;;;18.77;55.75
5522;BME280;2783;48.730;8.006;2023-05-27T06:30:42;100666.19;;;18.91;56.78
5522;BME280;2783;48.730;8.006;2023-05-27T06:33:08;100672.47;;;19.07;55.20
5522;BME280;2783;48.730;8.006;2023-05-27T06:35:33;100661.69;;;19.07;55.88
5522;BME280;2783;48.730;8.006;2023-05-27T06:37:58;100657.75;;;18.97;53.87
5522;BME280;2783;48.730;8.006;2023-05-27T06:40:24;100659.56;;;18.96;54.40
5522;BME280;2783;48.730;8.006;2023-05-27T06:42:49;100658.78;;;19.10;54.45
5522;BME280;2783;48.730;8.006;2023-05-27T06:45:14;100667.06;;;19.38;55.70
5522;BME280;2783;48.730;8.006;2023-05-27T06:47:39;100658.47;;;19.47;53.50
5522;BME280;2783;48.730;8.006;2023-05-27T06:50:05;100657.97;;;19.70;53.83
5522;BME280;2783;48.730;8.006;2023-05-27T06:52:30;100659.69;;;19.71;52.89
5522;BME280;2783;48.730;8.006;2023-05-27T06:54:56;100656.56;;;19.93;54.10
5522;BME280;2783;48.730;8.006;2023-05-27T06:57:21;100662.78;;;19.79;51.82
5522;BME280;2783;48.730;8.006;2023-05-27T06:59:46;100659.38;;;19.91;52.96
5522;BME280;2783;48.730;8.006;2023-05-27T07:02:12;100663.97;;;19.89;51.79
5522;BME280;2783;48.730;8.006;2023-05-27T07:04:37;100657.47;;;20.07;52.14
5522;BME280;2783;48.730;8.006;2023-05-27T07:07:02;100663.19;;;20.17;50.18
5522;BME280;2783;48.730;8.006;2023-05-27T07:09:27;100661.22;;;20.34;49.88
5522;BME280;2783;48.730;8.006;2023-05-27T07:11:53;100670.47;;;20.58;50.74
5522;BME280;2783;48.730;8.006;2023-05-27T07:14:18;100666.75;;;20.87;50.42
5522;BME280;2783;48.730;8.006;2023-05-27T07:16:43;100669.84;;;20.95;49.29
5522;BME280;2783;48.730;8.006;2023-05-27T07:19:09;100667.16;;;21.10;49.19
5522;BME280;2783;48.730;8.006;2023-05-27T07:21:34;100667.00;;;21.25;48.56
5522;BME280;2783;48.730;8.006;2023-05-27T07:24:00;100668.41;;;21.45;48.09
5522;BME280;2783;48.730;8.006;2023-05-27T07:26:28;100674.09;;;21.67;48.19
5522;BME280;2783;48.730;8.006;2023-05-27T07:28:54;100673.97;;;21.56;47.12
5522;BME280;2783;48.730;8.006;2023-05-27T07:31:19;100675.09;;;21.66;47.25
5522;BME280;2783;48.730;8.006;2023-05-27T07:33:44;100663.44;;;21.78;47.15
5522;BME280;2783;48.730;8.006;2023-05-27T07:36:10;100673.59;;;22.13;47.64
5522;BME280;2783;48.730;8.006;2023-05-27T07:38:35;100667.53;;;22.48;47.37
5522;BME280;2783;48.730;8.006;2023-05-27T07:41:00;100667.97;;;22.79;46.55
5522;BME280;2783;48.730;8.006;2023-05-27T07:43:26;100666.97;;;23.16;45.27
5522;BME280;2783;48.730;8.006;2023-05-27T07:45:51;100652.56;;;23.52;45.24
5522;BME280;2783;48.730;8.006;2023-05-27T07:48:16;100652.31;;;23.79;43.41
5522;BME280;2783;48.730;8.006;2023-05-27T07:50:41;100644.00;;;24.04;43.34
5522;BME280;2783;48.730;8.006;2023-05-27T07:53:07;100643.91;;;24.16;43.86
5522;BME280;2783;48.730;8.006;2023-05-27T07:55:32;100644.44;;;24.32;43.66
5522;BME280;2783;48.730;8.006;2023-05-27T07:57:57;100646.53;;;24.40;42.94
5522;BME280;2783;48.730;8.006;2023-05-27T08:00:22;100648.63;;;24.25;41.86
5522;BME280;2783;48.730;8.006;2023-05-27T08:02:48;100641.09;;;24.40;42.71
5522;BME280;2783;48.730;8.006;2023-05-27T08:05:13;100643.94;;;24.38;41.93
5522;BME280;2783;48.730;8.006;2023-05-27T08:07:38;100652.59;;;24.21;42.36
5522;BME280;2783;48.730;8.006;2023-05-27T08:10:03;100637.91;;;24.68;42.75
5522;BME280;2783;48.730;8.006;2023-05-27T08:12:29;100641.72;;;24.43;41.42
5522;BME280;2783;48.730;8.006;2023-05-27T08:14:54;100637.16;;;24.55;41.70
5522;BME280;2783;48.730;8.006;2023-05-27T08:17:20;100632.47;;;24.57;41.16
5522;BME280;2783;48.730;8.006;2023-05-27T08:19:45;100629.97;;;24.65;41.44
5522;BME280;2783;48.730;8.006;2023-05-27T08:22:10;100623.72;;;24.76;41.34
5522;BME280;2783;48.730;8.006;2023-05-27T08:24:36;100626.78;;;24.93;40.95
5522;BME280;2783;48.730;8.006;2023-05-27T08:27:01;100625.97;;;25.24;41.49
5522;BME280;2783;48.730;8.006;2023-05-27T08:29:28;100620.69;;;25.54;41.78
5522;BME280;2783;48.730;8.006;2023-05-27T08:31:55;100622.41;;;25.55;41.17
5522;BME280;2783;48.730;8.006;2023-05-27T08:34:21;100618.94;;;25.64;40.58
5522;BME280;2783;48.730;8.006;2023-05-27T08:36:46;100618.66;;;25.67;40.73
5522;BME280;2783;48.730;8.006;2023-05-27T08:39:11;100615.91;;;25.99;39.32
5522;BME280;2783;48.730;8.006;2023-05-27T08:41:37;100618.41;;;26.23;40.11
5522;BME280;2783;48.730;8.006;2023-05-27T08:44:03;100614.25;;;26.28;40.27
5522;BME280;2783;48.730;8.006;2023-05-27T08:46:28;100608.44;;;26.42;40.43
5522;BME280;2783;48.730;8.006;2023-05-27T08:48:55;100607.34;;;26.54;40.40
5522;BME280;2783;48.730;8.006;2023-05-27T08:51:22;100605.94;;;26.60;38.43
5522;BME280;2783;48.730;8.006;2023-05-27T08:53:48;100606.13;;;26.68;38.89
5522;BME280;2783;48.730;8.006;2023-05-27T08:56:18;100608.44;;;26.42;39.06
5522;BME280;2783;48.730;8.006;2023-05-27T08:58:44;100606.00;;;26.19;38.72
5522;BME280;2783;48.730;8.006;2023-05-27T09:01:10;100600.09;;;26.34;38.79
5522;BME280;2783;48.730;8.006;2023-05-27T09:03:36;100599.81;;;26.37;38.75
5522;BME280;2783;48.730;8.006;2023-05-27T09:06:02;100591.84;;;26.55;38.88
5522;BME280;2783;48.730;8.006;2023-05-27T09:08:29;100594.28;;;26.88;39.18
5522;BME280;2783;48.730;8.006;2023-05-27T09:10:55;100593.47;;;27.06;39.98
5522;BME280;2783;48.730;8.006;2023-05-27T09:13:29;100591.59;;;27.07;39.27
5522;BME280;2783;48.730;8.006;2023-05-27T09:15:58;100597.75;;;26.90;38.72
5522;BME280;2783;48.730;8.006;2023-05-27T09:18:25;100590.91;;;26.65;39.06
5522;BME280;2783;48.730;8.006;2023-05-27T09:20:53;100600.03;;;26.55;39.00
5522;BME280;2783;48.730;8.006;2023-05-27T09:23:18;100579.88;;;26.76;39.76
5522;BME280;2783;48.730;8.006;2023-05-27T09:25:43;100587.72;;;27.00;39.20
5522;BME280;2783;48.730;8.006;2023-05-27T09:28:08;100584.34;;;27.36;38.79
5522;BME280;2783;48.730;8.006;2023-05-27T09:30:34;100580.75;;;27.55;37.90
5522;BME280;2783;48.730;8.006;2023-05-27T09:33:01;100585.63;;;27.70;37.49
5522;BME280;2783;48.730;8.006;2023-05-27T09:35:27;100583.19;;;27.96;37.86
5522;BME280;2783;48.730;8.006;2023-05-27T09:37:52;100573.75;;;28.36;38.24
5522;BME280;2783;48.730;8.006;2023-05-27T09:40:18;100581.84;;;28.28;36.75
5522;BME280;2783;48.730;8.006;2023-05-27T09:45:18;100571.22;;;28.06;37.01
5522;BME280;2783;48.730;8.006;2023-05-27T09:47:47;100572.28;;;27.67;36.87
5522;BME280;2783;48.730;8.006;2023-05-27T09:50:12;100571.69;;;27.54;37.44
5522;BME280;2783;48.730;8.006;2023-05-27T09:52:40;100569.06;;;28.10;38.38
5522;BME280;2783;48.730;8.006;2023-05-27T09:55:07;100575.44;;;27.91;38.25
5522;BME280;2783;48.730;8.006;2023-05-27T09:57:33;100560.75;;;27.73;38.15
5522;BME280;2783;48.730;8.006;2023-05-27T09:59:59;100559.00;;;28.01;38.81
5522;BME280;2783;48.730;8.006;2023-05-27T10:02:24;100560.69;;;28.11;37.99
5522;BME280;2783;48.730;8.006;2023-05-27T10:04:50;100556.44;;;27.90;37.77
5522;BME280;2783;48.730;8.006;2023-05-27T10:07:16;100551.19;;;28.15;37.68
5522;BME280;2783;48.730;8.006;2023-05-27T10:09:44;100545.03;;;28.40;37.29
5522;BME280;2783;48.730;8.006;2023-05-27T10:12:09;100542.88;;;28.44;35.97
5522;BME280;2783;48.730;8.006;2023-05-27T10:14:35;100545.19;;;28.76;37.58
5522;BME280;2783;48.730;8.006;2023-05-27T10:17:00;100539.53;;;28.60;37.05
5522;BME280;2783;48.730;8.006;2023-05-27T10:19:25;100539.34;;;28.24;36.32
5522;BME280;2783;48.730;8.006;2023-05-27T10:21:51;100533.22;;;28.50;38.13
5522;BME280;2783;48.730;8.006;2023-05-27T10:24:16;100527.16;;;28.83;37.15
5522;BME280;2783;48.730;8.006;2023-05-27T10:26:45;100529.38;;;29.14;37.34
5522;BME280;2783;48.730;8.006;2023-05-27T10:29:11;100530.72;;;29.28;37.34
5522;BME280;2783;48.730;8.006;2023-05-27T10:31:47;100520.72;;;29.19;36.77
5522;BME280;2783;48.730;8.006;2023-05-27T10:34:12;100526.81;;;29.48;37.30
5522;BME280;2783;48.730;8.006;2023-05-27T10:36:38;100515.06;;;29.38;36.12
5522;BME280;2783;48.730;8.006;2023-05-27T10:39:04;100513.72;;;29.24;35.30
5522;BME280;2783;48.730;8.006;2023-05-27T10:41:49;100517.31;;;29.42;36.72
5522;BME280;2783;48.730;8.006;2023-05-27T10:44:24;100518.81;;;29.54;34.65
5522;BME280;2783;48.730;8.006;2023-05-27T10:46:58;100510.09;;;29.59;36.23
5522;BME280;2783;48.730;8.006;2023-05-27T10:49:24;100512.31;;;29.73;37.67
5522;BME280;2783;48.730;8.006;2023-05-27T10:51:50;100521.31;;;29.83;36.33
5522;BME280;2783;48.730;8.006;2023-05-27T10:54:17;100523.47;;;29.72;36.37
5522;BME280;2783;48.730;8.006;2023-05-27T10:56:49;100513.31;;;29.72;36.80
5522;BME280;2783;48.730;8.006;2023-05-27T10:59:18;100514.09;;;29.82;36.33
5522;BME280;2783;48.730;8.006;2023-05-27T11:01:45;100502.91;;;30.01;36.96
5522;BME280;2783;48.730;8.006;2023-05-27T11:04:11;100500.78;;;29.95;35.78
5522;BME280;2783;48.730;8.006;2023-05-27T11:06:37;100492.91;;;29.92;37.11
5522;BME280;2783;48.730;8.006;2023-05-27T11:09:02;100490.09;;;30.10;37.49
5522;BME280;2783;48.730;8.006;2023-05-27T11:11:28;100493.25;;;30.56;35.25
5522;BME280;2783;48.730;8.006;2023-05-27T11:13:54;100480.94;;;30.60;35.27
5522;BME280;2783;48.730;8.006;2023-05-27T11:16:19;100483.84;;;31.09;35.59
5522;BME280;2783;48.730;8.006;2023-05-27T11:21:10;100480.13;;;31.58;35.08
5522;BME280;2783;48.730;8.006;2023-05-27T11:23:37;100467.38;;;31.89;35.07
5522;BME280;2783;48.730;8.006;2023-05-27T11:26:04;100466.00;;;31.69;33.78
5522;BME280;2783;48.730;8.006;2023-05-27T11:28:29;100463.59;;;31.42;33.96
5522;BME280;2783;48.730;8.006;2023-05-27T11:31:01;100462.72;;;31.65;33.84
5522;BME280;2783;48.730;8.006;2023-05-27T11:33:30;100456.88;;;31.60;33.63
5522;BME280;2783;48.730;8.006;2023-05-27T11:36:03;100443.50;;;31.41;34.39
5522;BME280;2783;48.730;8.006;2023-05-27T11:38:28;100440.94;;;31.32;34.43
5522;BME280;2783;48.730;8.006;2023-05-27T11:40:54;100432.63;;;31.24;34.83
5522;BME280;2783;48.730;8.006;2023-05-27T11:43:19;100432.97;;;31.21;33.77
5522;BME280;2783;48.730;8.006;2023-05-27T11:45:45;100431.97;;;31.30;35.01
5522;BME280;2783;48.730;8.006;2023-05-27T11:48:10;100420.41;;;30.94;34.16
5522;BME280;2783;48.730;8.006;2023-05-27T11:50:35;100416.84;;;31.10;35.96
5522;BME280;2783;48.730;8.006;2023-05-27T11:53:02;100409.81;;;31.23;34.57
5522;BME280;2783;48.730;8.006;2023-05-27T11:55:29;100416.13;;;31.16;34.25
5522;BME280;2783;48.730;8.006;2023-05-27T11:57:54;100410.66;;;31.08;34.09
5522;BME280;2783;48.730;8.006;2023-05-27T12:00:20;100414.28;;;31.40;34.58
5522;BME280;2783;48.730;8.006;2023-05-27T12:02:45;100397.94;;;31.63;35.94
5522;BME280;2783;48.730;8.006;2023-05-27T12:05:11;100400.34;;;31.34;35.16
5522;BME280;2783;48.730;8.006;2023-05-27T12:07:36;100407.03;;;31.31;34.98
5522;BME280;2783;48.730;8.006;2023-05-27T12:10:05;100404.47;;;31.14;35.42
5522;BME280;2783;48.730;8.006;2023-05-27T12:12:31;100400.00;;;30.97;35.15
5522;BME280;2783;48.730;8.006;2023-05-27T12:14:59;100399.16;;;31.20;34.90
5522;BME280;2783;48.730;8.006;2023-05-27T12:17:24;100392.28;;;31.48;34.60
5522;BME280;2783;48.730;8.006;2023-05-27T12:19:49;100389.53;;;31.48;33.37
5522;BME280;2783;48.730;8.006;2023-05-27T12:22:15;100386.94;;;31.63;33.35
5522;BME280;2783;48.730;8.006;2023-05-27T12:24:40;100384.84;;;31.73;34.07
5522;BME280;2783;48.730;8.006;2023-05-27T12:27:05;100381.44;;;31.47;33.89
5522;BME280;2783;48.730;8.006;2023-05-27T12:29:31;100381.72;;;31.76;34.82
5522;BME280;2783;48.730;8.006;2023-05-27T12:31:59;100375.75;;;32.19;33.37
5522;BME280;2783;48.730;8.006;2023-05-27T12:34:24;100379.81;;;31.76;33.45
5522;BME280;2783;48.730;8.006;2023-05-27T12:36:50;100372.50;;;31.53;33.03
5522;BME280;2783;48.730;8.006;2023-05-27T12:39:15;100369.38;;;31.64;33.66
5522;BME280;2783;48.730;8.006;2023-05-27T12:41:41;100367.72;;;32.01;34.07
5522;BME280;2783;48.730;8.006;2023-05-27T12:44:06;100375.53;;;32.29;33.85
5522;BME280;2783;48.730;8.006;2023-05-27T12:46:31;100366.66;;;32.10;34.20
5522;BME280;2783;48.730;8.006;2023-05-27T12:48:57;100364.00;;;31.86;33.71
5522;BME280;2783;48.730;8.006;2023-05-27T12:51:22;100364.16;;;31.77;33.88
5522;BME280;2783;48.730;8.006;2023-05-27T12:53:47;100360.88;;;31.81;33.68
5522;BME280;2783;48.730;8.006;2023-05-27T12:56:13;100352.16;;;31.70;33.51
5522;BME280;2783;48.730;8.006;2023-05-27T12:58:38;100348.38;;;31.71;34.06
5522;BME280;2783;48.730;8.006;2023-05-27T13:01:03;100347.72;;;31.61;33.95
5522;BME280;2783;48.730;8.006;2023-05-27T13:03:29;100344.28;;;31.59;33.80
5522;BME280;2783;48.730;8.006;2023-05-27T13:05:55;100344.31;;;31.51;32.88
5522;BME280;2783;48.730;8.006;2023-05-27T13:08:20;100341.16;;;31.70;33.83
5522;BME280;2783;48.730;8.006;2023-05-27T13:10:45;100336.22;;;31.49;34.54